createdAt,value
2019-06-27T00:00:27.585Z,3.50
2019-06-27T00:02:53.599Z,3.50
2019-06-27T00:05:19.761Z,3.93
2019-06-27T00:07:45.772Z,4.00
2019-06-27T00:10:12.350Z,3.43
2019-06-27T00:12:38.364Z,3.40
2019-06-27T00:15:04.763Z,4.40
2019-06-27T00:17:31.009Z,4.07
2019-06-27T00:19:57.276Z,3.27
2019-06-27T00:22:23.288Z,3.50
2019-06-27T00:24:49.272Z,3.77
2019-06-27T00:27:15.302Z,3.40
2019-06-27T00:29:41.577Z,3.10
2019-06-27T00:32:07.564Z,4.00
2019-06-27T00:34:33.576Z,3.00
2019-06-27T00:36:59.598Z,3.37
2019-06-27T00:39:25.593Z,3.47
2019-06-27T00:41:51.620Z,3.40
2019-06-27T00:44:17.604Z,3.17
2019-06-27T00:46:43.617Z,3.50
2019-06-27T00:49:09.608Z,3.57
2019-06-27T00:51:35.628Z,3.90
2019-06-27T00:54:01.660Z,3.10
2019-06-27T00:56:27.716Z,3.73
2019-06-27T00:58:53.766Z,3.27
2019-06-27T01:01:19.857Z,3.13
2019-06-27T01:03:45.937Z,3.23
2019-06-27T01:06:12.009Z,3.60
2019-06-27T01:08:37.997Z,3.80
2019-06-27T01:11:04.401Z,3.43
2019-06-27T01:13:30.468Z,2.97
2019-06-27T01:15:56.467Z,3.80
2019-06-27T01:18:22.836Z,4.00
2019-06-27T01:20:48.903Z,3.90
2019-06-27T01:23:15.134Z,3.23
2019-06-27T01:25:42.027Z,4.43
2019-06-27T01:28:08.083Z,3.53
2019-06-27T01:30:34.203Z,3.07
2019-06-27T01:33:00.337Z,3.43
2019-06-27T01:35:26.379Z,3.20
2019-06-27T01:37:52.515Z,3.30
2019-06-27T01:40:19.045Z,3.67
2019-06-27T01:42:45.047Z,3.03
2019-06-27T01:45:13.084Z,3.10
2019-06-27T01:47:39.143Z,3.23
2019-06-27T01:50:05.486Z,4.20
2019-06-27T01:52:31.592Z,3.27
2019-06-27T01:54:57.617Z,3.57
2019-06-27T01:57:23.652Z,4.03
2019-06-27T01:59:49.698Z,3.37
2019-06-27T02:02:15.848Z,4.03
2019-06-27T02:04:41.866Z,3.53
2019-06-27T02:07:07.940Z,4.13
2019-06-27T02:09:34.069Z,4.30
2019-06-27T02:12:00.180Z,3.23
2019-06-27T02:14:26.204Z,3.63
2019-06-27T02:16:52.192Z,4.30
2019-06-27T02:19:18.324Z,3.60
2019-06-27T02:21:44.340Z,3.83
2019-06-27T02:24:10.336Z,3.50
2019-06-27T02:26:36.435Z,4.13
2019-06-27T02:29:02.692Z,3.70
2019-06-27T02:31:28.736Z,3.73
2019-06-27T02:33:54.707Z,3.77
2019-06-27T02:36:21.484Z,3.83
2019-06-27T02:38:47.516Z,3.40
2019-06-27T02:41:13.526Z,3.07
2019-06-27T02:43:39.527Z,2.70
2019-06-27T02:51:32.921Z,4.10
2019-06-27T02:54:06.002Z,4.17
2019-06-27T03:10:29.270Z,3.97
2019-06-27T03:12:55.388Z,4.23
2019-06-27T03:15:21.465Z,5.83
2019-06-27T03:17:47.458Z,4.00
2019-06-27T03:20:13.656Z,4.80
2019-06-27T03:22:39.781Z,4.60
2019-06-27T03:25:06.067Z,3.67
2019-06-27T03:27:32.091Z,3.93
2019-06-27T03:29:58.238Z,3.50
2019-06-27T03:32:24.218Z,5.30
2019-06-27T03:34:50.241Z,4.37
2019-06-27T03:37:16.368Z,3.03
2019-06-27T03:39:42.346Z,3.90
2019-06-27T03:42:08.352Z,4.40
2019-06-27T03:44:34.321Z,3.33
2019-06-27T03:47:00.353Z,3.17
2019-06-27T03:49:26.325Z,4.83
2019-06-27T03:51:52.466Z,4.07
2019-06-27T03:54:18.454Z,3.50
2019-06-27T03:56:44.429Z,3.80
2019-06-27T03:59:12.964Z,3.20
2019-06-27T04:01:38.327Z,3.60
2019-06-27T04:04:04.357Z,3.60
2019-06-27T04:06:30.342Z,3.40
2019-06-27T04:08:56.468Z,4.80
2019-06-27T04:11:22.672Z,3.70
2019-06-27T04:13:48.689Z,3.40
2019-06-27T04:16:15.150Z,5.07
2019-06-27T04:18:41.274Z,4.10
2019-06-27T04:21:07.405Z,4.37
2019-06-27T04:23:33.448Z,4.30
2019-06-27T04:25:59.441Z,4.90
2019-06-27T04:28:25.443Z,4.70
2019-06-27T04:30:51.456Z,4.40
2019-06-27T04:33:17.733Z,4.60
2019-06-27T04:35:44.001Z,5.63
2019-06-27T04:38:10.033Z,4.80
2019-06-27T04:40:36.064Z,4.30
2019-06-27T04:43:05.298Z,4.07
2019-06-27T04:45:30.048Z,4.60
2019-06-27T04:47:56.089Z,3.80
2019-06-27T04:50:22.224Z,4.53
2019-06-27T04:52:48.329Z,4.70
2019-06-27T04:55:14.362Z,4.47
2019-06-27T04:57:40.365Z,5.17
2019-06-27T05:00:06.701Z,4.40
2019-06-27T05:02:32.814Z,4.47
2019-06-27T05:04:58.917Z,4.80
2019-06-27T05:07:24.935Z,5.03
2019-06-27T05:09:50.911Z,4.03
2019-06-27T05:12:17.022Z,3.97
2019-06-27T05:14:43.028Z,3.73
2019-06-27T05:17:09.064Z,3.63
2019-06-27T05:19:35.351Z,4.13
2019-06-27T05:22:01.395Z,5.30
2019-06-27T05:24:27.468Z,4.43
2019-06-27T05:26:53.464Z,4.40
2019-06-27T05:29:19.491Z,3.80
2019-06-27T05:31:45.461Z,3.40
2019-06-27T05:34:11.578Z,4.07
2019-06-27T05:36:37.552Z,4.77
2019-06-27T05:39:04.845Z,4.13
2019-06-27T05:41:30.845Z,4.63
2019-06-27T05:43:56.833Z,5.23
2019-06-27T05:46:22.921Z,3.40
2019-06-27T05:48:48.932Z,4.50
2019-06-27T05:51:14.899Z,3.87
2019-06-27T05:53:40.929Z,3.00
2019-06-27T05:56:06.952Z,4.60
2019-06-27T05:58:32.921Z,4.50
2019-06-27T06:00:58.948Z,4.70
2019-06-27T06:03:24.954Z,4.43
2019-06-27T06:05:51.017Z,3.93
2019-06-27T06:08:17.118Z,4.70
2019-06-27T06:10:43.098Z,3.90
2019-06-27T06:13:09.127Z,5.20
2019-06-27T06:15:35.234Z,4.00
2019-06-27T06:18:01.226Z,3.47
2019-06-27T06:20:27.288Z,4.60
2019-06-27T06:22:53.304Z,5.00
2019-06-27T06:25:19.292Z,4.60
2019-06-27T06:27:45.346Z,4.77
2019-06-27T06:30:12.069Z,5.27
2019-06-27T06:32:38.076Z,4.60
2019-06-27T06:35:05.584Z,4.43
2019-06-27T06:37:31.678Z,5.50
2019-06-27T06:39:57.695Z,4.70
2019-06-27T06:42:23.700Z,4.57
2019-06-27T06:44:49.728Z,4.07
2019-06-27T06:47:15.957Z,4.43
2019-06-27T06:49:41.945Z,5.43
2019-06-27T06:52:07.953Z,4.63
2019-06-27T06:54:33.972Z,4.50
2019-06-27T06:56:59.987Z,5.00
2019-06-27T06:59:25.980Z,5.50
2019-06-27T07:01:51.997Z,3.80
2019-06-27T07:04:18.168Z,5.60
2019-06-27T07:06:44.192Z,3.63
2019-06-27T07:09:10.215Z,4.30
2019-06-27T07:11:36.276Z,5.40
2019-06-27T07:14:02.476Z,4.93
2019-06-27T07:16:28.510Z,5.50
2019-06-27T07:18:54.551Z,4.83
2019-06-27T07:21:20.628Z,4.87
2019-06-27T07:23:46.670Z,4.53
2019-06-27T07:26:12.692Z,4.63
2019-06-27T07:28:38.844Z,4.00
2019-06-27T07:31:17.394Z,4.00
2019-06-27T07:33:32.731Z,4.47
2019-06-27T07:35:58.778Z,4.37
2019-06-27T07:38:25.113Z,4.43
2019-06-27T07:40:51.089Z,3.93
2019-06-27T07:43:17.115Z,3.97
2019-06-27T07:45:43.141Z,4.30
2019-06-27T07:48:09.249Z,4.80
2019-06-27T07:50:35.312Z,4.70
2019-06-27T07:53:01.525Z,5.87
2019-06-27T07:55:27.680Z,5.00
2019-06-27T07:57:53.720Z,3.77
2019-06-27T08:00:21.108Z,4.00
2019-06-27T08:02:47.116Z,5.33
2019-06-27T08:05:13.651Z,5.03
2019-06-27T08:07:39.692Z,4.30
2019-06-27T08:10:06.262Z,4.77
2019-06-27T08:12:32.252Z,3.93
2019-06-27T08:14:58.278Z,5.10
2019-06-27T08:17:24.278Z,5.33
2019-06-27T08:19:50.333Z,4.50
2019-06-27T08:22:16.320Z,4.77
2019-06-27T08:24:42.311Z,4.37
2019-06-27T08:27:08.352Z,4.43
2019-06-27T08:29:34.452Z,4.60
2019-06-27T08:32:00.504Z,4.40
2019-06-27T08:34:26.512Z,3.87
2019-06-27T08:36:52.556Z,3.80
2019-06-27T08:39:18.634Z,3.77
2019-06-27T08:41:44.648Z,4.27
2019-06-27T08:44:11.031Z,3.63
2019-06-27T08:46:37.000Z,4.13
2019-06-27T08:49:03.262Z,4.10
2019-06-27T08:51:29.387Z,5.13
2019-06-27T08:53:55.509Z,3.50
2019-06-27T08:56:21.552Z,4.63
2019-06-27T08:58:47.548Z,3.90
2019-06-27T09:01:13.569Z,4.10
2019-06-27T09:03:39.637Z,4.60
2019-06-27T09:06:05.694Z,3.77
2019-06-27T09:08:31.670Z,6.40
2019-06-27T09:10:57.690Z,3.10
2019-06-27T09:13:23.692Z,3.17
2019-06-27T09:15:49.713Z,3.03
2019-06-27T09:18:15.709Z,3.23
2019-06-27T09:20:41.752Z,3.30
2019-06-27T09:23:07.736Z,4.03
2019-06-27T09:25:33.768Z,3.60
2019-06-27T09:27:59.810Z,3.37
2019-06-27T09:30:26.037Z,3.27
2019-06-27T09:32:52.028Z,2.97
2019-06-27T09:35:18.065Z,2.90
2019-06-27T09:37:44.052Z,2.83
2019-06-27T09:40:10.209Z,3.40
2019-06-27T09:42:36.183Z,2.80
2019-06-27T09:45:05.692Z,2.83
2019-06-27T09:47:31.764Z,2.50
2019-06-27T09:49:57.796Z,3.40
2019-06-27T09:52:23.808Z,3.03
2019-06-27T09:54:49.829Z,3.27
2019-06-27T09:57:15.865Z,2.97
2019-06-27T09:59:41.957Z,2.60
2019-06-27T10:02:08.001Z,3.00
2019-06-27T10:04:34.313Z,3.57
2019-06-27T10:07:00.323Z,2.40
2019-06-27T10:09:26.328Z,3.20
2019-06-27T10:11:53.427Z,3.20
2019-06-27T10:14:19.654Z,3.10
2019-06-27T10:16:45.653Z,1.87
2019-06-27T10:19:11.694Z,3.13
2019-06-27T10:21:37.727Z,3.20
2019-06-27T10:24:03.856Z,2.60
2019-06-27T10:26:29.866Z,2.33
2019-06-27T10:28:55.871Z,2.47
2019-06-27T10:31:21.932Z,2.70
2019-06-27T10:33:47.971Z,3.40
2019-06-27T10:36:13.995Z,2.10
2019-06-27T10:38:40.035Z,1.93
2019-06-27T10:41:06.055Z,2.20
2019-06-27T10:43:32.042Z,1.93
2019-06-27T10:45:58.028Z,1.90
2019-06-27T10:48:24.119Z,2.33
2019-06-27T10:50:50.106Z,5.23
2019-06-27T10:53:16.311Z,2.73
2019-06-27T10:55:42.358Z,2.10
2019-06-27T10:58:08.357Z,2.50
2019-06-27T11:00:34.385Z,2.33
2019-06-27T11:03:14.375Z,2.10
2019-06-27T11:05:28.337Z,2.00
2019-06-27T11:07:54.419Z,2.10
2019-06-27T11:10:20.488Z,2.20
2019-06-27T11:12:46.528Z,2.07
2019-06-27T11:15:13.102Z,1.90
2019-06-27T11:17:39.329Z,2.30
2019-06-27T11:20:05.973Z,3.60
2019-06-27T11:22:31.996Z,2.70
2019-06-27T11:24:58.012Z,1.73
2019-06-27T11:27:27.305Z,3.47
2019-06-27T11:29:52.072Z,1.57
2019-06-27T11:32:18.087Z,1.77
2019-06-27T11:34:44.133Z,1.60
2019-06-27T11:37:10.169Z,1.60
2019-06-27T11:39:36.211Z,1.67
2019-06-27T11:42:02.254Z,2.37
2019-06-27T11:44:28.615Z,1.93
2019-06-27T11:46:54.618Z,1.70
2019-06-27T11:49:20.618Z,1.57
2019-06-27T11:51:46.672Z,1.77
2019-06-27T11:54:12.707Z,1.80
2019-06-27T11:56:38.778Z,1.90
2019-06-27T11:59:04.857Z,1.60
2019-06-27T12:01:30.833Z,1.53
2019-06-27T12:03:56.870Z,1.50
2019-06-27T12:06:22.893Z,1.50
2019-06-27T12:08:48.883Z,1.40
2019-06-27T12:11:14.911Z,1.63
2019-06-27T12:13:40.933Z,2.07
2019-06-27T12:16:06.912Z,1.67
2019-06-27T12:18:32.912Z,2.20
2019-06-27T12:20:58.897Z,2.13
2019-06-27T12:23:24.860Z,2.03
2019-06-27T12:25:50.893Z,1.60
2019-06-27T12:28:16.868Z,1.93
2019-06-27T12:30:42.897Z,2.30
2019-06-27T12:33:09.141Z,1.97
2019-06-27T12:35:35.185Z,2.20
2019-06-27T12:38:01.267Z,1.80
2019-06-27T12:40:27.297Z,1.67
2019-06-27T12:42:53.294Z,1.57
2019-06-27T12:45:19.867Z,2.10
2019-06-27T12:47:45.946Z,1.73
2019-06-27T12:50:14.676Z,1.63
2019-06-27T12:52:40.699Z,2.00
2019-06-27T12:55:07.034Z,2.00
2019-06-27T12:57:33.052Z,1.70
2019-06-27T12:59:59.403Z,1.67
2019-06-27T13:02:25.491Z,2.07
2019-06-27T13:04:51.499Z,1.63
2019-06-27T13:07:17.549Z,1.30
2019-06-27T13:09:43.542Z,2.00
2019-06-27T13:12:09.594Z,1.90
2019-06-27T13:14:35.633Z,1.43
2019-06-27T13:17:01.654Z,2.13
2019-06-27T13:19:27.740Z,2.10
2019-06-27T13:21:53.877Z,1.70
2019-06-27T13:24:20.022Z,1.70
2019-06-27T13:26:46.056Z,1.70
2019-06-27T13:29:12.035Z,1.40
2019-06-27T13:31:38.046Z,1.47
2019-06-27T13:34:04.048Z,1.60
2019-06-27T13:36:33.117Z,1.40
2019-06-27T13:38:57.973Z,2.13
2019-06-27T13:41:23.972Z,1.90
2019-06-27T13:43:50.072Z,1.80
2019-06-27T13:46:16.080Z,1.60
2019-06-27T13:48:42.110Z,1.60
2019-06-27T13:51:08.071Z,1.47
2019-06-27T13:53:34.096Z,1.70
2019-06-27T13:56:00.132Z,1.87
2019-06-27T13:58:26.142Z,1.43
2019-06-27T14:00:52.173Z,1.60
2019-06-27T14:03:18.209Z,1.27
2019-06-27T14:05:44.200Z,1.40
2019-06-27T14:08:10.295Z,1.40
2019-06-27T14:10:36.325Z,1.33
2019-06-27T14:13:02.423Z,1.63
2019-06-27T14:15:28.410Z,1.60
2019-06-27T14:17:54.518Z,2.50
2019-06-27T14:20:20.581Z,1.90
2019-06-27T14:22:46.608Z,1.20
2019-06-27T14:25:12.626Z,1.80
2019-06-27T14:27:38.652Z,1.50
2019-06-27T14:30:06.924Z,1.80
2019-06-27T14:32:33.200Z,1.40
2019-06-27T14:35:13.952Z,5.20
2019-06-27T14:37:27.124Z,6.50
2019-06-27T14:39:56.451Z,4.73
2019-06-27T14:42:21.066Z,13.97
2019-06-27T14:44:47.296Z,17.33
2019-06-27T14:47:13.614Z,17.73
2019-06-27T14:49:40.676Z,9.10
2019-06-27T14:52:06.776Z,8.97
2019-06-27T14:54:34.640Z,7.47
2019-06-27T14:57:01.324Z,3.50
2019-06-27T14:59:27.334Z,6.40
2019-06-27T15:01:53.363Z,3.17
2019-06-27T15:04:19.404Z,3.17
2019-06-27T15:06:45.710Z,2.40
2019-06-27T15:09:11.953Z,2.13
2019-06-27T15:11:37.955Z,2.00
2019-06-27T15:14:04.054Z,2.10
2019-06-27T15:16:31.026Z,1.90
2019-06-27T15:18:57.152Z,1.60
2019-06-27T15:21:23.255Z,2.30
2019-06-27T15:23:49.253Z,2.20
2019-06-27T15:26:15.334Z,2.40
2019-06-27T15:28:41.435Z,1.80
2019-06-27T15:31:07.440Z,2.10
2019-06-27T15:33:33.785Z,10.90
2019-06-27T15:35:59.835Z,12.93
2019-06-27T15:38:27.819Z,21.13
2019-06-27T15:40:55.413Z,8.20
2019-06-27T15:43:21.825Z,12.30
2019-06-27T15:45:47.933Z,8.97
2019-06-27T15:48:14.144Z,20.07
2019-06-27T15:50:40.235Z,8.73
2019-06-27T15:53:06.449Z,8.50
2019-06-27T15:55:32.551Z,5.27
2019-06-27T15:57:58.643Z,2.97
2019-06-27T16:00:24.734Z,2.80
2019-06-27T16:02:50.852Z,3.33
2019-06-27T16:05:16.878Z,2.40
2019-06-27T16:07:43.054Z,2.73
2019-06-27T16:10:10.138Z,2.97
2019-06-27T16:12:38.085Z,2.40
2019-06-27T16:15:07.861Z,2.93
2019-06-27T16:17:33.979Z,2.33
2019-06-27T16:20:00.089Z,2.27
2019-06-27T16:22:26.103Z,2.90
2019-06-27T16:24:52.132Z,2.30
2019-06-27T16:27:18.224Z,2.43
2019-06-27T16:29:44.650Z,2.97
2019-06-27T16:32:10.791Z,2.70
2019-06-27T16:34:37.874Z,2.60
2019-06-27T16:37:04.158Z,2.70
2019-06-27T16:39:30.348Z,2.57
2019-06-27T16:41:56.503Z,2.83
2019-06-27T16:44:22.720Z,2.50
2019-06-27T16:46:49.410Z,2.60
2019-06-27T16:49:16.079Z,3.43
2019-06-27T16:51:42.081Z,2.60
2019-06-27T16:54:08.068Z,2.80
2019-06-27T16:56:34.136Z,3.00
2019-06-27T16:59:00.337Z,2.30
2019-06-27T17:01:27.332Z,2.60
2019-06-27T17:03:53.437Z,3.00
2019-06-27T17:06:19.560Z,2.60
2019-06-27T17:08:45.592Z,4.63
2019-06-27T17:11:11.737Z,2.50
2019-06-27T17:13:37.885Z,2.20
2019-06-27T17:16:04.204Z,2.57
2019-06-27T17:18:30.659Z,2.20
2019-06-27T17:20:58.146Z,2.60
2019-06-27T17:23:24.360Z,2.30
2019-06-27T17:25:50.524Z,2.70
2019-06-27T17:28:16.878Z,2.60
2019-06-27T17:30:43.652Z,2.53
2019-06-27T17:33:10.929Z,3.10
2019-06-27T17:35:37.224Z,3.03
2019-06-27T17:38:13.917Z,2.50
2019-06-27T17:40:43.200Z,2.50
2019-06-27T17:43:09.331Z,3.20
2019-06-27T17:45:35.365Z,2.33
2019-06-27T17:48:01.552Z,4.13
2019-06-27T17:50:27.594Z,2.17
2019-06-27T17:52:53.672Z,2.70
2019-06-27T17:55:20.035Z,2.50
2019-06-27T17:57:47.342Z,2.90
2019-06-27T18:00:14.098Z,3.60
2019-06-27T18:02:40.154Z,3.00
2019-06-27T18:05:07.296Z,2.90
2019-06-27T18:07:33.493Z,3.10
2019-06-27T18:10:00.315Z,3.37
2019-06-27T18:12:27.528Z,2.83
2019-06-27T18:14:53.597Z,2.90
2019-06-27T18:17:32.423Z,3.00
2019-06-27T18:19:47.756Z,3.10
2019-06-27T18:22:13.844Z,2.70
2019-06-27T18:24:41.756Z,3.23
2019-06-27T18:27:08.126Z,2.97
2019-06-27T18:29:34.248Z,3.00
2019-06-27T18:32:00.420Z,2.63
2019-06-27T18:34:26.550Z,2.90
2019-06-27T18:36:52.652Z,2.83
2019-06-27T18:39:18.692Z,3.03
2019-06-27T18:41:44.775Z,3.30
2019-06-27T18:44:10.790Z,3.40
2019-06-27T18:46:36.904Z,3.90
2019-06-27T18:49:02.914Z,4.00
2019-06-27T18:51:28.955Z,3.50
2019-06-27T18:53:54.960Z,4.10
2019-06-27T18:56:20.968Z,5.23
2019-06-27T18:58:47.066Z,3.30
2019-06-27T19:01:13.157Z,3.80
2019-06-27T19:03:39.237Z,3.97
2019-06-27T19:06:05.245Z,3.80
2019-06-27T19:08:31.396Z,3.90
2019-06-27T19:10:59.349Z,3.80
2019-06-27T19:13:25.355Z,3.30
2019-06-27T19:15:51.539Z,3.43
2019-06-27T19:18:35.776Z,3.80
2019-06-27T19:21:03.710Z,3.37
2019-06-27T19:23:31.641Z,4.07
2019-06-27T19:25:58.460Z,3.70
2019-06-27T19:28:24.489Z,4.90
2019-06-27T19:30:50.515Z,3.23
2019-06-27T19:33:17.260Z,3.97
2019-06-27T19:35:43.283Z,3.80
2019-06-27T19:38:12.972Z,3.97
2019-06-27T19:40:38.999Z,4.00
2019-06-27T19:43:05.061Z,4.40
2019-06-27T19:45:31.069Z,6.60
2019-06-27T19:47:57.081Z,4.20
2019-06-27T19:50:23.148Z,4.30
2019-06-27T19:52:49.297Z,3.23
2019-06-27T19:55:15.534Z,3.97
2019-06-27T19:57:41.511Z,4.30
2019-06-27T20:00:08.008Z,3.73
2019-06-27T20:02:39.123Z,4.03
2019-06-27T20:05:05.468Z,4.43
2019-06-27T20:08:18.976Z,3.87
2019-06-27T20:10:37.360Z,4.77
2019-06-27T20:13:03.599Z,5.20
2019-06-27T20:15:29.620Z,4.50
2019-06-27T20:17:55.865Z,4.70
2019-06-27T20:20:21.897Z,4.67
2019-06-27T20:22:48.147Z,4.60
2019-06-27T20:25:14.156Z,4.70
2019-06-27T20:27:40.180Z,4.80
2019-06-27T20:30:07.008Z,5.00
2019-06-27T20:32:33.037Z,5.00
2019-06-27T20:34:59.201Z,4.33
2019-06-27T20:37:27.103Z,6.20
2019-06-27T20:39:53.294Z,4.63
2019-06-27T20:42:19.387Z,4.70
2019-06-27T20:44:45.371Z,4.30
2019-06-27T20:47:11.427Z,4.53
2019-06-27T20:49:37.462Z,4.50
2019-06-27T20:52:03.483Z,4.60
2019-06-27T20:54:29.587Z,4.43
2019-06-27T20:56:55.651Z,4.37
2019-06-27T20:59:21.650Z,4.90
2019-06-27T21:01:47.959Z,4.20
2019-06-27T21:04:13.987Z,4.40
2019-06-27T21:06:40.104Z,3.80
2019-06-27T21:09:06.127Z,4.20
2019-06-27T21:11:32.276Z,4.20
2019-06-27T21:13:58.274Z,4.73
2019-06-27T21:16:24.276Z,4.87
2019-06-27T21:18:51.178Z,4.10
2019-06-27T21:21:17.605Z,4.03
2019-06-27T21:23:43.644Z,5.00
2019-06-27T21:26:09.712Z,4.90
2019-06-27T21:28:35.781Z,4.67
2019-06-27T21:31:01.900Z,4.90
2019-06-27T21:33:28.062Z,3.77
2019-06-27T21:35:54.027Z,4.00
2019-06-27T21:38:20.024Z,5.17
2019-06-27T21:40:46.054Z,4.80
2019-06-27T21:43:12.036Z,3.50
2019-06-27T21:45:38.120Z,4.10
2019-06-27T21:48:04.328Z,4.10
2019-06-27T21:50:30.337Z,4.10
2019-06-27T21:52:56.394Z,3.40
2019-06-27T21:55:22.552Z,3.97
2019-06-27T21:57:48.658Z,4.47
2019-06-27T22:00:14.975Z,4.50
2019-06-27T22:02:41.008Z,3.87
2019-06-27T22:05:07.170Z,4.70
2019-06-27T22:07:33.221Z,4.80
2019-06-27T22:09:59.244Z,4.30
2019-06-27T22:12:25.278Z,4.13
2019-06-27T22:14:51.267Z,4.50
2019-06-27T22:17:17.449Z,3.83
2019-06-27T22:19:43.474Z,4.00
2019-06-27T22:22:09.468Z,4.70
2019-06-27T22:24:35.527Z,4.43
2019-06-27T22:27:01.560Z,6.33
2019-06-27T22:29:27.920Z,5.20
2019-06-27T22:31:53.939Z,4.93
2019-06-27T22:34:20.208Z,4.40
2019-06-27T22:36:46.221Z,4.17
2019-06-27T22:39:40.110Z,4.60
2019-06-27T22:42:16.612Z,4.00
2019-06-27T22:45:01.030Z,4.17
2019-06-27T22:47:45.153Z,4.20
2019-06-27T22:50:19.470Z,4.40
2019-06-27T22:52:50.185Z,4.40
2019-06-27T22:55:23.665Z,4.40
2019-06-27T22:57:49.760Z,5.00
2019-06-27T23:00:16.040Z,5.40
2019-06-27T23:02:42.011Z,4.93
2019-06-27T23:05:08.402Z,4.00
2019-06-27T23:07:34.403Z,4.17
2019-06-27T23:10:00.379Z,3.90
2019-06-27T23:12:26.627Z,5.00
2019-06-27T23:14:52.640Z,6.63
2019-06-27T23:17:18.705Z,6.03
2019-06-27T23:19:44.770Z,5.03
2019-06-27T23:22:10.777Z,5.20
2019-06-27T23:24:36.899Z,5.17
2019-06-27T23:27:02.882Z,4.90
2019-06-27T23:29:28.885Z,5.27
2019-06-27T23:31:54.948Z,4.00
2019-06-27T23:34:20.960Z,4.10
2019-06-27T23:36:46.955Z,4.20
2019-06-27T23:39:13.383Z,3.80
2019-06-27T23:41:39.668Z,4.07
2019-06-27T23:44:05.908Z,4.87
2019-06-27T23:46:39.590Z,4.67
2019-06-27T23:49:05.677Z,4.17
2019-06-27T23:51:31.688Z,5.00
2019-06-27T23:53:57.745Z,4.37
2019-06-27T23:56:23.735Z,5.60
2019-06-27T23:58:49.780Z,3.80
